sensor_id;sensor_type;location;lat;lon;timestamp;pressure;altitude;pressure_sealevel;temperature;humidity
9746;BME280;4912;50.836;12.958;2023-11-19T00:00:53;97665.63;;;6.28;95.01
9746;BME280;4912;50.836;12.958;2023-11-19T00:03:24;97679.78;;;6.39;95.17
9746;BME280;4912;50.836;12.958;2023-11-19T00:05:58;97673.94;;;6.37;95.39
9746;BME280;4912;50.836;12.958;2023-11-19T00:08:28;97660.66;;;6.36;94.81
9746;BME280;4912;50.836;12.958;2023-11-19T00:11:02;97657.47;;;6.37;95.07
9746;BME280;4912;50.836;12.958;2023-11-19T00:13:34;97654.03;;;6.46;94.99
9746;BME280;4912;50.836;12.958;2023-11-19T00:16:06;97646.38;;;6.41;94.71
9746;BME280;4912;50.836;12.958;2023-11-19T00:18:37;97639.56;;;6.33;94.67
9746;BME280;4912;50.836;12.958;2023-11-19T00:21:08;97641.34;;;6.27;94.95
9746;BME280;4912;50.836;12.958;2023-11-19T00:23:39;97643.97;;;6.30;95.74
9746;BME280;4912;50.836;12.958;2023-11-19T00:26:12;97634.09;;;6.20;95.50
9746;BME280;4912;50.836;12.958;2023-11-19T00:28:46;97642.34;;;6.20;96.27
9746;BME280;4912;50.836;12.958;2023-11-19T00:31:17;97640.56;;;6.26;96.40
9746;BME280;4912;50.836;12.958;2023-11-19T00:33:48;97637.25;;;6.31;96.36
9746;BME280;4912;50.836;12.958;2023-11-19T00:36:19;97632.84;;;6.34;96.40
9746;BME280;4912;50.836;12.958;2023-11-19T00:38:51;97634.06;;;6.33;96.11
9746;BME280;4912;50.836;12.958;2023-11-19T00:41:24;97621.53;;;6.32;96.54
9746;BME280;4912;50.836;12.958;2023-11-19T00:43:55;97619.75;;;6.38;96.42
9746;BME280;4912;50.836;12.958;2023-11-19T00:46:26;97614.84;;;6.33;96.42
9746;BME280;4912;50.836;12.958;2023-11-19T00:48:56;97609.97;;;6.37;96.41
9746;BME280;4912;50.836;12.958;2023-11-19T00:51:28;97601.72;;;6.37;96.86
9746;BME280;4912;50.836;12.958;2023-11-19T00:53:59;97592.84;;;6.33;96.82
9746;BME280;4912;50.836;12.958;2023-11-19T00:56:32;97583.84;;;6.32;96.57
9746;BME280;4912;50.836;12.958;2023-11-19T00:59:04;97589.97;;;6.36;96.92
9746;BME280;4912;50.836;12.958;2023-11-19T01:01:35;97582.06;;;6.38;97.11
9746;BME280;4912;50.836;12.958;2023-11-19T01:04:06;97566.00;;;6.37;96.93
9746;BME280;4912;50.836;12.958;2023-11-19T01:06:37;97555.69;;;6.41;96.89
9746;BME280;4912;50.836;12.958;2023-11-19T01:09:15;97564.56;;;6.45;96.88
9746;BME280;4912;50.836;12.958;2023-11-19T01:11:48;97558.06;;;6.51;96.97
9746;BME280;4912;50.836;12.958;2023-11-19T01:14:19;97550.75;;;6.57;96.68
9746;BME280;4912;50.836;12.958;2023-11-19T01:16:49;97557.81;;;6.58;96.93
9746;BME280;4912;50.836;12.958;2023-11-19T01:19:21;97554.59;;;6.60;96.74
9746;BME280;4912;50.836;12.958;2023-11-19T01:21:52;97550.63;;;6.61;96.84
9746;BME280;4912;50.836;12.958;2023-11-19T01:24:23;97545.00;;;6.65;97.32
9746;BME280;4912;50.836;12.958;2023-11-19T01:26:58;97550.75;;;6.57;98.41
9746;BME280;4912;50.836;12.958;2023-11-19T01:29:29;97539.63;;;6.61;99.17
9746;BME280;4912;50.836;12.958;2023-11-19T01:32:00;97531.19;;;6.55;100.00
9746;BME280;4912;50.836;12.958;2023-11-19T01:34:30;97524.06;;;6.58;100.00
9746;BME280;4912;50.836;12.958;2023-11-19T01:37:01;97523.47;;;6.63;100.00
9746;BME280;4912;50.836;12.958;2023-11-19T01:39:32;97513.06;;;6.58;100.00
9746;BME280;4912;50.836;12.958;2023-11-19T01:42:05;97511.50;;;6.57;100.00
9746;BME280;4912;50.836;12.958;2023-11-19T01:44:36;97490.16;;;6.61;100.00
9746;BME280;4912;50.836;12.958;2023-11-19T01:47:07;97480.69;;;6.62;100.00
9746;BME280;4912;50.836;12.958;2023-11-19T01:49:38;97468.16;;;6.61;100.00
9746;BME280;4912;50.836;12.958;2023-11-19T01:52:09;97478.28;;;6.64;100.00
9746;BME280;4912;50.836;12.958;2023-11-19T01:54:40;97483.44;;;6.62;100.00
9746;BME280;4912;50.836;12.958;2023-11-19T01:57:15;97470.91;;;6.61;100.00
9746;BME280;4912;50.836;12.958;2023-11-19T01:59:45;97462.66;;;6.61;100.00
9746;BME280;4912;50.836;12.958;2023-11-19T02:02:16;97438.00;;;6.70;100.00
9746;BME280;4912;50.836;12.958;2023-11-19T02:04:51;97435.53;;;6.72;100.00
9746;BME280;4912;50.836;12.958;2023-11-19T02:07:24;97435.84;;;6.65;100.00
9746;BME280;4912;50.836;12.958;2023-11-19T02:09:55;97426.34;;;6.66;100.00
9746;BME280;4912;50.836;12.958;2023-11-19T02:12:30;97418.56;;;6.65;100.00
9746;BME280;4912;50.836;12.958;2023-11-19T02:15:01;97414.78;;;6.71;100.00
9746;BME280;4912;50.836;12.958;2023-11-19T02:17:32;97399.53;;;6.79;100.00
9746;BME280;4912;50.836;12.958;2023-11-19T02:20:08;97392.66;;;6.75;100.00
9746;BME280;4912;50.836;12.958;2023-11-19T02:22:42;97396.28;;;6.72;100.00
9746;BME280;4912;50.836;12.958;2023-11-19T02:25:19;97389.09;;;6.65;100.00
9746;BME280;4912;50.836;12.958;2023-11-19T02:27:57;97398.56;;;6.64;100.00
9746;BME280;4912;50.836;12.958;2023-11-19T02:30:29;97390.31;;;6.64;100.00
9746;BME280;4912;50.836;12.958;2023-11-19T02:33:00;97381.16;;;6.67;100.00
9746;BME280;4912;50.836;12.958;2023-11-19T02:35:33;97366.63;;;6.67;100.00
9746;BME280;4912;50.836;12.958;2023-11-19T02:38:04;97357.78;;;6.63;100.00
9746;BME280;4912;50.836;12.958;2023-11-19T02:40:35;97360.38;;;6.66;100.00
9746;BME280;4912;50.836;12.958;2023-11-19T02:43:08;97352.72;;;6.61;100.00
9746;BME280;4912;50.836;12.958;2023-11-19T02:45:39;97355.78;;;6.63;100.00
9746;BME280;4912;50.836;12.958;2023-11-19T02:48:13;97361.63;;;6.65;100.00
9746;BME280;4912;50.836;12.958;2023-11-19T02:50:44;97349.84;;;6.65;100.00
9746;BME280;4912;50.836;12.958;2023-11-19T02:53:15;97342.66;;;6.67;100.00
9746;BME280;4912;50.836;12.958;2023-11-19T02:55:49;97339.97;;;6.76;100.00
9746;BME280;4912;50.836;12.958;2023-11-19T02:58:22;97327.75;;;6.77;100.00
9746;BME280;4912;50.836;12.958;2023-11-19T03:00:56;97326.50;;;6.78;100.00
9746;BME280;4912;50.836;12.958;2023-11-19T03:03:37;97327.91;;;6.83;100.00
9746;BME280;4912;50.836;12.958;2023-11-19T03:06:09;97333.88;;;6.81;100.00
9746;BME280;4912;50.836;12.958;2023-11-19T03:08:40;97323.34;;;6.89;100.00
9746;BME280;4912;50.836;12.958;2023-11-19T03:11:10;97313.72;;;6.93;100.00
9746;BME280;4912;50.836;12.958;2023-11-19T03:13:43;97301.81;;;6.96;100.00
9746;BME280;4912;50.836;12.958;2023-11-19T03:16:14;97290.50;;;6.94;100.00
9746;BME280;4912;50.836;12.958;2023-11-19T03:18:45;97301.03;;;6.87;100.00
9746;BME280;4912;50.836;12.958;2023-11-19T03:21:15;97302.56;;;6.88;100.00
9746;BME280;4912;50.836;12.958;2023-11-19T03:23:46;97283.94;;;6.92;100.00
9746;BME280;4912;50.836;12.958;2023-11-19T03:26:16;97273.69;;;6.92;100.00
9746;BME280;4912;50.836;12.958;2023-11-19T03:28:50;97261.78;;;6.95;100.00
9746;BME280;4912;50.836;12.958;2023-11-19T03:31:21;97246.19;;;7.02;100.00
9746;BME280;4912;50.836;12.958;2023-11-19T03:33:52;97243.47;;;7.11;100.00
9746;BME280;4912;50.836;12.958;2023-11-19T03:36:28;97241.91;;;7.19;100.00
9746;BME280;4912;50.836;12.958;2023-11-19T03:39:02;97227.25;;;7.22;100.00
9746;BME280;4912;50.836;12.958;2023-11-19T03:41:33;97226.50;;;7.21;100.00
9746;BME280;4912;50.836;12.958;2023-11-19T03:44:09;97224.66;;;7.18;100.00
9746;BME280;4912;50.836;12.958;2023-11-19T03:46:40;97226.03;;;7.23;100.00
9746;BME280;4912;50.836;12.958;2023-11-19T03:49:11;97220.69;;;7.28;100.00
9746;BME280;4912;50.836;12.958;2023-11-19T03:51:42;97222.06;;;7.24;100.00
9746;BME280;4912;50.836;12.958;2023-11-19T03:54:12;97212.88;;;7.27;100.00
9746;BME280;4912;50.836;12.958;2023-11-19T03:56:43;97220.22;;;7.30;100.00
9746;BME280;4912;50.836;12.958;2023-11-19T03:59:16;97206.75;;;7.32;100.00
9746;BME280;4912;50.836;12.958;2023-11-19T04:01:47;97207.06;;;7.34;100.00
9746;BME280;4912;50.836;12.958;2023-11-19T04:04:18;97201.88;;;7.36;100.00
9746;BME280;4912;50.836;12.958;2023-11-19T04:06:49;97204.31;;;7.34;100.00
9746;BME280;4912;50.836;12.958;2023-11-19T04:09:20;97204.91;;;7.38;100.00
9746;BME280;4912;50.836;12.958;2023-11-19T04:11:50;97211.63;;;7.46;100.00
9746;BME280;4912;50.836;12.958;2023-11-19T04:14:24;97212.38;;;7.56;100.00
9746;BME280;4912;50.836;12.958;2023-11-19T04:16:55;97206.09;;;7.55;100.00
9746;BME280;4912;50.836;12.958;2023-11-19T04:19:25;97195.22;;;7.61;100.00
9746;BME280;4912;50.836;12.958;2023-11-19T04:21:56;97189.44;;;7.59;100.00
9746;BME280;4912;50.836;12.958;2023-11-19T04:24:27;97201.50;;;7.61;100.00
9746;BME280;4912;50.836;12.958;2023-11-19T04:26:57;97193.09;;;7.65;100.00
9746;BME280;4912;50.836;12.958;2023-11-19T04:29:30;97187.53;;;7.74;100.00
9746;BME280;4912;50.836;12.958;2023-11-19T04:32:01;97184.66;;;7.77;100.00
9746;BME280;4912;50.836;12.958;2023-11-19T04:34:32;97190.16;;;7.77;100.00
9746;BME280;4912;50.836;12.958;2023-11-19T04:37:04;97187.72;;;7.70;100.00
9746;BME280;4912;50.836;12.958;2023-11-19T04:39:37;97187.09;;;7.75;100.00
9746;BME280;4912;50.836;12.958;2023-11-19T04:42:08;97168.59;;;7.76;100.00
9746;BME280;4912;50.836;12.958;2023-11-19T04:44:42;97175.13;;;7.78;100.00
9746;BME280;4912;50.836;12.958;2023-11-19T04:47:13;97164.44;;;7.80;100.00
9746;BME280;4912;50.836;12.958;2023-11-19T04:49:44;97168.13;;;7.77;100.00
9746;BME280;4912;50.836;12.958;2023-11-19T04:52:14;97176.41;;;7.68;100.00
9746;BME280;4912;50.836;12.958;2023-11-19T04:54:45;97168.00;;;7.63;100.00
9746;BME280;4912;50.836;12.958;2023-11-19T04:57:16;97162.38;;;7.57;100.00
9746;BME280;4912;50.836;12.958;2023-11-19T04:59:50;97164.69;;;7.50;100.00
9746;BME280;4912;50.836;12.958;2023-11-19T05:02:20;97148.47;;;7.52;100.00
9746;BME280;4912;50.836;12.958;2023-11-19T05:04:51;97157.03;;;7.54;100.00
9746;BME280;4912;50.836;12.958;2023-11-19T05:07:22;97155.34;;;7.56;100.00
9746;BME280;4912;50.836;12.958;2023-11-19T05:09:53;97149.97;;;7.62;100.00
9746;BME280;4912;50.836;12.958;2023-11-19T05:12:23;97163.28;;;7.63;100.00
9746;BME280;4912;50.836;12.958;2023-11-19T05:14:57;97152.56;;;7.65;100.00
9746;BME280;4912;50.836;12.958;2023-11-19T05:17:28;97148.28;;;7.64;100.00
9746;BME280;4912;50.836;12.958;2023-11-19T05:19:59;97138.50;;;7.63;100.00
9746;BME280;4912;50.836;12.958;2023-11-19T05:22:30;97157.72;;;7.72;100.00
9746;BME280;4912;50.836;12.958;2023-11-19T05:25:01;97152.22;;;7.72;100.00
9746;BME280;4912;50.836;12.958;2023-11-19T05:27:32;97147.31;;;7.76;100.00
9746;BME280;4912;50.836;12.958;2023-11-19T05:30:07;97132.28;;;7.87;100.00
9746;BME280;4912;50.836;12.958;2023-11-19T05:32:38;97137.59;;;7.90;100.00
9746;BME280;4912;50.836;12.958;2023-11-19T05:35:09;97125.81;;;7.90;100.00
9746;BME280;4912;50.836;12.958;2023-11-19T05:37:39;97116.81;;;7.89;100.00
9746;BME280;4912;50.836;12.958;2023-11-19T05:40:10;97105.44;;;7.96;100.00
9746;BME280;4912;50.836;12.958;2023-11-19T05:42:42;97113.25;;;7.98;100.00
9746;BME280;4912;50.836;12.958;2023-11-19T05:45:16;97124.97;;;8.07;100.00
9746;BME280;4912;50.836;12.958;2023-11-19T05:47:46;97134.47;;;8.06;100.00
9746;BME280;4912;50.836;12.958;2023-11-19T05:50:19;97124.84;;;8.02;100.00
9746;BME280;4912;50.836;12.958;2023-11-19T05:52:49;97122.41;;;8.04;100.00
9746;BME280;4912;50.836;12.958;2023-11-19T05:55:20;97109.09;;;8.02;100.00
9746;BME280;4912;50.836;12.958;2023-11-19T05:57:51;97108.44;;;8.07;100.00
9746;BME280;4912;50.836;12.958;2023-11-19T06:00:25;97107.97;;;8.09;100.00
9746;BME280;4912;50.836;12.958;2023-11-19T06:02:55;97106.88;;;8.15;100.00
9746;BME280;4912;50.836;12.958;2023-11-19T06:05:26;97115.31;;;8.12;100.00
9746;BME280;4912;50.836;12.958;2023-11-19T06:07:56;97103.94;;;8.19;100.00
9746;BME280;4912;50.836;12.958;2023-11-19T06:10:27;97096.84;;;8.27;100.00
9746;BME280;4912;50.836;12.958;2023-11-19T06:12:59;97105.72;;;8.31;100.00
9746;BME280;4912;50.836;12.958;2023-11-19T06:15:35;97090.44;;;8.30;100.00
9746;BME280;4912;50.836;12.958;2023-11-19T06:18:06;97102.03;;;8.34;100.00
9746;BME280;4912;50.836;12.958;2023-11-19T06:20:38;97105.81;;;8.37;100.00
9746;BME280;4912;50.836;12.958;2023-11-19T06:23:10;97090.06;;;8.37;100.00
9746;BME280;4912;50.836;12.958;2023-11-19T06:25:41;97089.69;;;8.44;100.00
9746;BME280;4912;50.836;12.958;2023-11-19T06:28:11;97092.75;;;8.46;100.00
9746;BME280;4912;50.836;12.958;2023-11-19T06:30:45;97082.19;;;8.45;100.00
9746;BME280;4912;50.836;12.958;2023-11-19T06:33:15;97095.63;;;8.52;100.00
9746;BME280;4912;50.836;12.958;2023-11-19T06:35:46;97087.94;;;8.56;100.00
9746;BME280;4912;50.836;12.958;2023-11-19T06:38:17;97089.00;;;8.58;100.00
9746;BME280;4912;50.836;12.958;2023-11-19T06:40:47;97091.09;;;8.63;100.00
9746;BME280;4912;50.836;12.958;2023-11-19T06:43:20;97087.38;;;8.67;100.00
9746;BME280;4912;50.836;12.958;2023-11-19T06:45:54;97100.53;;;8.72;100.00
9746;BME280;4912;50.836;12.958;2023-11-19T06:48:24;97103.84;;;8.76;100.00
9746;BME280;4912;50.836;12.958;2023-11-19T06:50:55;97107.84;;;8.75;100.00
9746;BME280;4912;50.836;12.958;2023-11-19T06:53:25;97103.84;;;8.76;100.00
9746;BME280;4912;50.836;12.958;2023-11-19T06:55:57;97106.41;;;8.79;100.00
9746;BME280;4912;50.836;12.958;2023-11-19T06:58:27;97092.72;;;8.85;100.00
9746;BME280;4912;50.836;12.958;2023-11-19T07:01:01;97092.06;;;8.90;100.00
9746;BME280;4912;50.836;12.958;2023-11-19T07:03:31;97109.22;;;8.94;100.00
9746;BME280;4912;50.836;12.958;2023-11-19T07:06:02;97115.66;;;8.91;100.00
9746;BME280;4912;50.836;12.958;2023-11-19T07:08:33;97131.75;;;8.92;100.00
9746;BME280;4912;50.836;12.958;2023-11-19T07:11:05;97122.06;;;8.97;100.00
9746;BME280;4912;50.836;12.958;2023-11-19T07:13:37;97116.72;;;8.93;100.00
9746;BME280;4912;50.836;12.958;2023-11-19T07:16:11;97132.50;;;8.93;100.00
9746;BME280;4912;50.836;12.958;2023-11-19T07:18:41;97121.13;;;9.00;100.00
9746;BME280;4912;50.836;12.958;2023-11-19T07:21:12;97127.97;;;9.04;100.00
9746;BME280;4912;50.836;12.958;2023-11-19T07:23:43;97136.63;;;9.12;100.00
9746;BME280;4912;50.836;12.958;2023-11-19T07:26:14;97121.22;;;9.20;100.00
9746;BME280;4912;50.836;12.958;2023-11-19T07:28:44;97124.84;;;9.26;100.00
9746;BME280;4912;50.836;12.958;2023-11-19T07:31:18;97131.69;;;9.31;100.00
9746;BME280;4912;50.836;12.958;2023-11-19T07:33:48;97128.44;;;9.32;100.00
9746;BME280;4912;50.836;12.958;2023-11-19T07:36:19;97141.78;;;9.34;100.00
9746;BME280;4912;50.836;12.958;2023-11-19T07:38:50;97133.97;;;9.32;100.00
9746;BME280;4912;50.836;12.958;2023-11-19T07:41:20;97136.81;;;9.38;100.00
9746;BME280;4912;50.836;12.958;2023-11-19T07:43:52;97145.41;;;9.40;100.00
9746;BME280;4912;50.836;12.958;2023-11-19T07:46:25;97155.31;;;9.47;100.00
9746;BME280;4912;50.836;12.958;2023-11-19T07:48:56;97149.50;;;9.44;100.00
9746;BME280;4912;50.836;12.958;2023-11-19T07:51:26;97145.13;;;9.53;100.00
9746;BME280;4912;50.836;12.958;2023-11-19T07:53:57;97151.22;;;9.57;100.00
9746;BME280;4912;50.836;12.958;2023-11-19T07:56:27;97153.75;;;9.60;100.00
9746;BME280;4912;50.836;12.958;2023-11-19T07:58:58;97139.66;;;9.73;100.00
9746;BME280;4912;50.836;12.958;2023-11-19T08:01:32;97153.75;;;9.75;100.00
9746;BME280;4912;50.836;12.958;2023-11-19T08:04:02;97152.56;;;9.96;100.00
9746;BME280;4912;50.836;12.958;2023-11-19T08:06:34;97149.50;;;10.44;100.00
9746;BME280;4912;50.836;12.958;2023-11-19T08:09:05;97142.34;;;10.52;100.00
9746;BME280;4912;50.836;12.958;2023-11-19T08:11:41;97153.25;;;10.41;100.00
9746;BME280;4912;50.836;12.958;2023-11-19T08:14:12;97149.94;;;10.37;100.00
9746;BME280;4912;50.836;12.958;2023-11-19T08:16:46;97148.69;;;10.38;100.00
9746;BME280;4912;50.836;12.958;2023-11-19T08:19:16;97153.09;;;10.30;100.00
9746;BME280;4912;50.836;12.958;2023-11-19T08:21:47;97155.94;;;10.35;100.00
9746;BME280;4912;50.836;12.958;2023-11-19T08:24:18;97149.31;;;10.47;100.00
9746;BME280;4912;50.836;12.958;2023-11-19T08:26:48;97151.31;;;10.47;100.00
9746;BME280;4912;50.836;12.958;2023-11-19T08:29:22;97151.31;;;10.47;100.00
9746;BME280;4912;50.836;12.958;2023-11-19T08:31:55;97133.00;;;10.49;100.00
9746;BME280;4912;50.836;12.958;2023-11-19T08:34:28;97140.25;;;10.47;100.00
9746;BME280;4912;50.836;12.958;2023-11-19T08:36:59;97153.41;;;10.52;100.00
9746;BME280;4912;50.836;12.958;2023-11-19T08:39:30;97148.22;;;10.59;100.00
9746;BME280;4912;50.836;12.958;2023-11-19T08:42:02;97155.06;;;10.64;100.00
9746;BME280;4912;50.836;12.958;2023-11-19T08:44:33;97149.06;;;10.65;100.00
9746;BME280;4912;50.836;12.958;2023-11-19T08:47:07;97143.72;;;10.62;100.00
9746;BME280;4912;50.836;12.958;2023-11-19T08:49:40;97149.53;;;10.64;100.00
9746;BME280;4912;50.836;12.958;2023-11-19T08:52:10;97150.84;;;10.68;100.00
9746;BME280;4912;50.836;12.958;2023-11-19T08:54:42;97145.84;;;10.73;100.00
9746;BME280;4912;50.836;12.958;2023-11-19T08:57:13;97157.91;;;10.70;100.00
9746;BME280;4912;50.836;12.958;2023-11-19T08:59:44;97149.59;;;10.70;100.00
9746;BME280;4912;50.836;12.958;2023-11-19T09:02:17;97161.69;;;10.72;100.00
9746;BME280;4912;50.836;12.958;2023-11-19T09:04:48;97151.72;;;10.80;100.00
9746;BME280;4912;50.836;12.958;2023-11-19T09:07:20;97151.66;;;10.95;100.00
9746;BME280;4912;50.836;12.958;2023-11-19T09:09:51;97159.59;;;11.07;100.00
9746;BME280;4912;50.836;12.958;2023-11-19T09:12:22;97158.16;;;11.12;100.00
9746;BME280;4912;50.836;12.958;2023-11-19T09:14:53;97152.09;;;11.14;100.00
9746;BME280;4912;50.836;12.958;2023-11-19T09:17:26;97162.84;;;11.06;100.00
9746;BME280;4912;50.836;12.958;2023-11-19T09:19:57;97165.41;;;11.09;100.00
9746;BME280;4912;50.836;12.958;2023-11-19T09:22:28;97158.19;;;11.18;100.00
9746;BME280;4912;50.836;12.958;2023-11-19T09:24:58;97160.78;;;11.27;100.00
9746;BME280;4912;50.836;12.958;2023-11-19T09:27:29;97170.28;;;11.20;100.00
9746;BME280;4912;50.836;12.958;2023-11-19T09:29:59;97150.44;;;11.22;100.00
9746;BME280;4912;50.836;12.958;2023-11-19T09:32:33;97154.50;;;11.26;100.00
9746;BME280;4912;50.836;12.958;2023-11-19T09:35:05;97164.91;;;11.37;100.00
9746;BME280;4912;50.836;12.958;2023-11-19T09:37:40;97164.13;;;11.31;100.00
9746;BME280;4912;50.836;12.958;2023-11-19T09:40:11;97181.63;;;11.42;100.00
9746;BME280;4912;50.836;12.958;2023-11-19T09:42:43;97176.22;;;11.59;100.00
9746;BME280;4912;50.836;12.958;2023-11-19T09:45:16;97165.06;;;11.48;100.00
9746;BME280;4912;50.836;12.958;2023-11-19T09:47:51;97172.56;;;11.42;100.00
9746;BME280;4912;50.836;12.958;2023-11-19T09:50:24;97174.50;;;11.36;100.00
9746;BME280;4912;50.836;12.958;2023-11-19T09:52:55;97161.72;;;11.44;100.00
9746;BME280;4912;50.836;12.958;2023-11-19T09:55:25;97163.09;;;11.54;100.00
9746;BME280;4912;50.836;12.958;2023-11-19T09:57:57;97163.34;;;11.56;100.00
9746;BME280;4912;50.836;12.958;2023-11-19T10:00:30;97177.84;;;11.45;100.00
9746;BME280;4912;50.836;12.958;2023-11-19T10:03:04;97161.00;;;11.49;100.00
9746;BME280;4912;50.836;12.958;2023-11-19T10:05:37;97172.84;;;11.49;100.00
9746;BME280;4912;50.836;12.958;2023-11-19T10:08:08;97168.84;;;11.50;100.00
9746;BME280;4912;50.836;12.958;2023-11-19T10:10:39;97174.28;;;11.39;100.00
9746;BME280;4912;50.836;12.958;2023-11-19T10:13:10;97170.84;;;11.24;100.00
9746;BME280;4912;50.836;12.958;2023-11-19T10:15:43;97167.75;;;11.17;100.00
9746;BME280;4912;50.836;12.958;2023-11-19T10:18:17;97161.03;;;11.23;100.00
9746;BME280;4912;50.836;12.958;2023-11-19T10:20:47;97155.81;;;11.31;100.00
9746;BME280;4912;50.836;12.958;2023-11-19T10:23:18;97158.03;;;11.27;100.00
9746;BME280;4912;50.836;12.958;2023-11-19T10:25:53;97163.41;;;11.36;100.00
9746;BME280;4912;50.836;12.958;2023-11-19T10:28:25;97166.34;;;11.27;100.00
9746;BME280;4912;50.836;12.958;2023-11-19T10:30:56;97164.19;;;11.36;100.00
9746;BME280;4912;50.836;12.958;2023-11-19T10:33:29;97164.25;;;11.42;100.00
9746;BME280;4912;50.836;12.958;2023-11-19T10:36:01;97167.25;;;11.44;100.00
9746;BME280;4912;50.836;12.958;2023-11-19T10:38:32;97158.56;;;11.57;100.00
9746;BME280;4912;50.836;12.958;2023-11-19T10:41:03;97156.41;;;11.66;100.00
9746;BME280;4912;50.836;12.958;2023-11-19T10:43:43;97158.94;;;11.70;100.00
9746;BME280;4912;50.836;12.958;2023-11-19T10:46:14;97158.56;;;11.82;100.00
9746;BME280;4912;50.836;12.958;2023-11-19T10:48:51;97158.56;;;11.82;100.00
9746;BME280;4912;50.836;12.958;2023-11-19T10:51:21;97156.00;;;11.79;100.00
9746;BME280;4912;50.836;12.958;2023-11-19T10:53:52;97158.78;;;11.79;100.00
9746;BME280;4912;50.836;12.958;2023-11-19T10:56:30;97154.81;;;11.85;100.00
9746;BME280;4912;50.836;12.958;2023-11-19T10:59:02;97155.72;;;12.08;100.00
9746;BME280;4912;50.836;12.958;2023-11-19T11:01:53;97153.22;;;12.47;100.00
9746;BME280;4912;50.836;12.958;2023-11-19T11:04:31;97155.06;;;12.72;100.00
9746;BME280;4912;50.836;12.958;2023-11-19T11:07:04;97160.63;;;12.72;99.32
9746;BME280;4912;50.836;12.958;2023-11-19T11:09:36;97148.75;;;12.66;98.88
9746;BME280;4912;50.836;12.958;2023-11-19T11:12:07;97150.97;;;12.57;98.07
9746;BME280;4912;50.836;12.958;2023-11-19T11:14:41;97164.84;;;12.57;97.45
9746;BME280;4912;50.836;12.958;2023-11-19T11:17:12;97160.03;;;12.52;97.90
9746;BME280;4912;50.836;12.958;2023-11-19T11:19:52;97148.69;;;12.55;97.87
9746;BME280;4912;50.836;12.958;2023-11-19T11:22:24;97152.78;;;12.60;95.15
9746;BME280;4912;50.836;12.958;2023-11-19T11:25:11;97146.56;;;12.82;93.59
9746;BME280;4912;50.836;12.958;2023-11-19T11:28:08;97143.44;;;13.39;89.36
9746;BME280;4912;50.836;12.958;2023-11-19T11:30:54;97132.81;;;13.37;88.92
9746;BME280;4912;50.836;12.958;2023-11-19T11:33:42;97123.00;;;13.42;88.38
9746;BME280;4912;50.836;12.958;2023-11-19T11:36:38;97130.31;;;13.28;89.26
9746;BME280;4912;50.836;12.958;2023-11-19T11:39:17;97128.72;;;13.10;89.55
9746;BME280;4912;50.836;12.958;2023-11-19T11:45:05;97126.88;;;12.91;90.88
9746;BME280;4912;50.836;12.958;2023-11-19T11:50:53;97139.22;;;12.79;89.89
9746;BME280;4912;50.836;12.958;2023-11-19T11:53:30;97134.38;;;12.68;91.51
9746;BME280;4912;50.836;12.958;2023-11-19T11:56:01;97140.19;;;12.70;91.90
9746;BME280;4912;50.836;12.958;2023-11-19T11:58:36;97130.84;;;12.73;90.80
9746;BME280;4912;50.836;12.958;2023-11-19T12:01:15;97130.16;;;12.84;90.59
9746;BME280;4912;50.836;12.958;2023-11-19T12:03:50;97133.91;;;12.75;89.78
9746;BME280;4912;50.836;12.958;2023-11-19T12:06:21;97121.72;;;12.61;89.20
9746;BME280;4912;50.836;12.958;2023-11-19T12:09:02;97131.56;;;12.62;90.02
9746;BME280;4912;50.836;12.958;2023-11-19T12:11:34;97143.69;;;12.59;90.44
9746;BME280;4912;50.836;12.958;2023-11-19T12:14:05;97140.34;;;12.50;91.85
9746;BME280;4912;50.836;12.958;2023-11-19T12:16:35;97137.09;;;12.57;92.49
9746;BME280;4912;50.836;12.958;2023-11-19T12:19:07;97127.56;;;12.63;93.06
9746;BME280;4912;50.836;12.958;2023-11-19T12:21:40;97130.28;;;12.52;95.46
9746;BME280;4912;50.836;12.958;2023-11-19T12:24:13;97129.50;;;12.46;97.47
9746;BME280;4912;50.836;12.958;2023-11-19T12:26:44;97121.69;;;14.21;91.98
9746;BME280;4912;50.836;12.958;2023-11-19T12:29:24;97118.06;;;16.42;78.41
9746;BME280;4912;50.836;12.958;2023-11-19T12:31:58;97113.38;;;18.00;68.22
9746;BME280;4912;50.836;12.958;2023-11-19T12:34:33;97108.16;;;19.02;64.84
9746;BME280;4912;50.836;12.958;2023-11-19T12:37:04;97113.47;;;17.63;66.40
9746;BME280;4912;50.836;12.958;2023-11-19T12:39:38;97107.78;;;16.31;72.45
9746;BME280;4912;50.836;12.958;2023-11-19T12:42:09;97102.84;;;15.59;75.90
9746;BME280;4912;50.836;12.958;2023-11-19T12:44:54;97104.81;;;15.29;78.49
9746;BME280;4912;50.836;12.958;2023-11-19T12:47:26;97113.56;;;15.03;79.73
9746;BME280;4912;50.836;12.958;2023-11-19T12:49:57;97099.78;;;14.75;81.25
9746;BME280;4912;50.836;12.958;2023-11-19T12:52:33;97105.16;;;14.62;81.02
9746;BME280;4912;50.836;12.958;2023-11-19T12:55:27;97105.19;;;14.56;82.51
9746;BME280;4912;50.836;12.958;2023-11-19T12:58:00;97106.66;;;14.68;82.06
9746;BME280;4912;50.836;12.958;2023-11-19T13:00:32;97098.84;;;14.56;81.07
9746;BME280;4912;50.836;12.958;2023-11-19T13:03:03;97100.53;;;14.75;80.10
9746;BME280;4912;50.836;12.958;2023-11-19T13:05:34;97088.63;;;15.22;76.55
9746;BME280;4912;50.836;12.958;2023-11-19T13:08:06;97081.72;;;15.34;74.95
9746;BME280;4912;50.836;12.958;2023-11-19T13:10:52;97092.69;;;14.74;75.36
9746;BME280;4912;50.836;12.958;2023-11-19T13:13:23;97092.81;;;14.35;76.20
9746;BME280;4912;50.836;12.958;2023-11-19T13:16:01;97091.31;;;14.28;76.39
9746;BME280;4912;50.836;12.958;2023-11-19T13:18:33;97090.53;;;14.45;75.21
9746;BME280;4912;50.836;12.958;2023-11-19T13:21:07;97096.56;;;14.65;73.91
9746;BME280;4912;50.836;12.958;2023-11-19T13:23:37;97091.81;;;14.32;75.08
9746;BME280;4912;50.836;12.958;2023-11-19T13:26:11;97086.81;;;14.03;75.92
9746;BME280;4912;50.836;12.958;2023-11-19T13:28:41;97102.03;;;13.80;75.98
9746;BME280;4912;50.836;12.958;2023-11-19T13:31:13;97099.25;;;13.63;76.16
9746;BME280;4912;50.836;12.958;2023-11-19T13:33:44;97092.69;;;13.83;74.90
9746;BME280;4912;50.836;12.958;2023-11-19T13:36:15;97094.94;;;13.90;74.16
9746;BME280;4912;50.836;12.958;2023-11-19T13:38:46;97093.41;;;14.11;73.40
9746;BME280;4912;50.836;12.958;2023-11-19T13:41:20;97098.19;;;14.16;71.96
9746;BME280;4912;50.836;12.958;2023-11-19T13:43:51;97090.88;;;14.13;71.70